TimeEST,TemperatureF,Dew PointF,Humidity,Sea Level PressureIn,VisibilityMPH,Wind Direction,Wind SpeedMPH,Gust SpeedMPH,PrecipitationIn,Events,Conditions,WindDirDegrees,DateUTC
12:28 AM,19.4,17.6,93,30.02,5.0,Calm,Calm,-,0.00,,Overcast,0,2013-01-26 05:28:00
12:53 AM,18.0,16.0,92,30.07,5.0,Calm,Calm,-,0.00,,Overcast,0,2013-01-26 05:53:00
1:13 AM,17.6,15.8,93,30.03,5.0,Calm,Calm,-,N/A,,Overcast,0,2013-01-26 06:13:00
1:53 AM,18.0,17.1,96,30.07,5.0,Calm,Calm,-,N/A,,Overcast,0,2013-01-26 06:53:00
2:53 AM,18.0,15.1,88,30.10,5.0,Calm,Calm,-,N/A,,Overcast,0,2013-01-26 07:53:00
3:53 AM,21.0,18.0,88,30.12,7.0,WNW,6.9,-,N/A,,Overcast,290,2013-01-26 08:53:00
4:53 AM,21.0,17.1,85,30.13,6.0,WNW,8.1,-,0.00,Snow,Light Snow,290,2013-01-26 09:53:00
5:53 AM,21.0,17.1,85,30.15,9.0,WNW,6.9,-,0.00,,Overcast,300,2013-01-26 10:53:00
6:53 AM,21.0,17.1,85,30.19,8.0,WNW,8.1,-,N/A,,Overcast,300,2013-01-26 11:53:00
7:53 AM,21.0,16.0,81,30.21,9.0,NW,4.6,-,N/A,,Overcast,310,2013-01-26 12:53:00
8:53 AM,21.0,16.0,81,30.24,4.0,WNW,6.9,-,0.00,Snow,Light Snow,290,2013-01-26 13:53:00
9:53 AM,21.0,17.1,85,30.26,5.0,West,8.1,-,0.00,Snow,Light Snow,280,2013-01-26 14:53:00
10:33 AM,21.2,15.8,80,30.24,8.0,WNW,9.2,-,0.00,,Overcast,290,2013-01-26 15:33:00
10:48 AM,21.2,15.8,80,30.25,9.0,NW,8.1,-,0.00,,Overcast,310,2013-01-26 15:48:00
10:53 AM,21.9,15.1,75,30.29,10.0,NW,9.2,-,0.00,,Overcast,320,2013-01-26 15:53:00
11:41 AM,23.0,12.2,63,30.27,10.0,WNW,10.4,-,N/A,,Mostly Cloudy,300,2013-01-26 16:41:00
11:53 AM,23.0,14.0,68,30.31,4.0,NNW,5.8,-,0.00,Snow,Light Snow,330,2013-01-26 16:53:00
12:18 PM,24.8,12.2,59,30.27,10.0,NW,9.2,-,0.00,,Overcast,310,2013-01-26 17:18:00
12:53 PM,24.1,14.0,65,30.31,10.0,NW,8.1,-,0.00,,Mostly Cloudy,310,2013-01-26 17:53:00
1:53 PM,25.0,12.9,60,30.32,10.0,NW,6.9,-,N/A,,Overcast,320,2013-01-26 18:53:00
2:53 PM,25.0,14.0,63,30.33,10.0,NW,8.1,-,N/A,,Overcast,310,2013-01-26 19:53:00
3:53 PM,25.0,14.0,63,30.35,10.0,NNW,9.2,-,N/A,,Overcast,340,2013-01-26 20:53:00
4:53 PM,25.0,15.1,66,30.38,10.0,WNW,5.8,-,N/A,,Overcast,300,2013-01-26 21:53:00
5:53 PM,24.1,17.1,75,30.39,10.0,West,3.5,-,N/A,,Overcast,280,2013-01-26 22:53:00
6:53 PM,23.0,17.1,78,30.43,10.0,West,3.5,-,N/A,,Overcast,270,2013-01-26 23:53:00
7:53 PM,17.1,14.0,88,30.43,10.0,Calm,Calm,-,N/A,,Partly Cloudy,0,2013-01-27 00:53:00
8:53 PM,17.1,15.1,92,30.43,10.0,Calm,Calm,-,N/A,,Clear,0,2013-01-27 01:53:00
9:53 PM,12.0,9.0,88,30.45,9.0,Calm,Calm,-,N/A,,Clear,0,2013-01-27 02:53:00
10:53 PM,14.0,12.0,92,30.45,8.0,Calm,Calm,-,N/A,,Clear,0,2013-01-27 03:53:00
11:53 PM,14.0,10.9,88,30.48,9.0,Calm,Calm,-,N/A,,Clear,0,2013-01-27 04:53:00